sensor_id;sensor_type;location;lat;lon;timestamp;P1;durP1;ratioP1;P2;durP2;ratioP2
5054;SDS011;13829;48.990;8.346;2024-02-21T00:01:49;7.60;;;4.80;;
5054;SDS011;13829;48.990;8.346;2024-02-21T00:04:16;11.60;;;4.90;;
5054;SDS011;13829;48.990;8.346;2024-02-21T00:06:43;9.87;;;4.87;;
5054;SDS011;13829;48.990;8.346;2024-02-21T00:09:10;12.67;;;4.87;;
5054;SDS011;13829;48.990;8.346;2024-02-21T00:11:37;14.53;;;5.83;;
5054;SDS011;13829;48.990;8.346;2024-02-21T00:14:04;10.50;;;5.30;;
5054;SDS011;13829;48.990;8.346;2024-02-21T00:16:31;9.13;;;4.60;;
5054;SDS011;13829;48.990;8.346;2024-02-21T00:18:59;10.73;;;4.63;;
5054;SDS011;13829;48.990;8.346;2024-02-21T00:21:26;13.83;;;5.40;;
5054;SDS011;13829;48.990;8.346;2024-02-21T00:23:53;15.00;;;4.63;;
5054;SDS011;13829;48.990;8.346;2024-02-21T00:26:20;10.50;;;4.33;;
5054;SDS011;13829;48.990;8.346;2024-02-21T00:28:47;8.80;;;4.60;;
5054;SDS011;13829;48.990;8.346;2024-02-21T00:31:14;9.93;;;4.80;;
5054;SDS011;13829;48.990;8.346;2024-02-21T00:33:41;9.97;;;4.83;;
5054;SDS011;13829;48.990;8.346;2024-02-21T00:36:09;12.77;;;5.30;;
5054;SDS011;13829;48.990;8.346;2024-02-21T00:38:36;8.80;;;5.17;;
5054;SDS011;13829;48.990;8.346;2024-02-21T00:41:03;9.90;;;4.60;;
5054;SDS011;13829;48.990;8.346;2024-02-21T00:43:30;9.70;;;5.00;;
5054;SDS011;13829;48.990;8.346;2024-02-21T00:45:57;11.87;;;5.17;;
5054;SDS011;13829;48.990;8.346;2024-02-21T00:48:24;10.40;;;4.90;;
5054;SDS011;13829;48.990;8.346;2024-02-21T00:50:51;8.73;;;4.80;;
5054;SDS011;13829;48.990;8.346;2024-02-21T00:53:19;8.97;;;4.47;;
5054;SDS011;13829;48.990;8.346;2024-02-21T00:55:46;9.00;;;4.83;;
5054;SDS011;13829;48.990;8.346;2024-02-21T00:58:13;10.17;;;4.87;;
5054;SDS011;13829;48.990;8.346;2024-02-21T01:00:40;9.37;;;4.53;;
5054;SDS011;13829;48.990;8.346;2024-02-21T01:03:07;11.70;;;4.70;;
5054;SDS011;13829;48.990;8.346;2024-02-21T01:05:34;10.93;;;4.87;;
5054;SDS011;13829;48.990;8.346;2024-02-21T01:08:01;11.80;;;4.67;;
5054;SDS011;13829;48.990;8.346;2024-02-21T01:10:30;8.43;;;4.23;;
5054;SDS011;13829;48.990;8.346;2024-02-21T01:12:57;9.70;;;4.47;;
5054;SDS011;13829;48.990;8.346;2024-02-21T01:15:24;8.00;;;4.60;;
5054;SDS011;13829;48.990;8.346;2024-02-21T01:17:51;8.93;;;4.97;;
5054;SDS011;13829;48.990;8.346;2024-02-21T01:20:19;12.50;;;4.47;;
5054;SDS011;13829;48.990;8.346;2024-02-21T01:22:46;11.60;;;4.80;;
5054;SDS011;13829;48.990;8.346;2024-02-21T01:25:13;12.93;;;5.47;;
5054;SDS011;13829;48.990;8.346;2024-02-21T01:27:42;11.77;;;5.07;;
5054;SDS011;13829;48.990;8.346;2024-02-21T01:30:09;11.70;;;4.77;;
5054;SDS011;13829;48.990;8.346;2024-02-21T01:32:37;11.53;;;4.83;;
5054;SDS011;13829;48.990;8.346;2024-02-21T01:35:04;7.10;;;4.30;;
5054;SDS011;13829;48.990;8.346;2024-02-21T01:37:32;8.63;;;4.03;;
5054;SDS011;13829;48.990;8.346;2024-02-21T01:39:59;14.50;;;4.93;;
5054;SDS011;13829;48.990;8.346;2024-02-21T01:42:27;11.07;;;4.43;;
5054;SDS011;13829;48.990;8.346;2024-02-21T01:44:56;10.33;;;4.27;;
5054;SDS011;13829;48.990;8.346;2024-02-21T01:47:22;13.07;;;4.97;;
5054;SDS011;13829;48.990;8.346;2024-02-21T01:49:50;9.87;;;4.03;;
5054;SDS011;13829;48.990;8.346;2024-02-21T01:52:17;9.77;;;4.83;;
5054;SDS011;13829;48.990;8.346;2024-02-21T01:54:44;7.77;;;4.30;;
5054;SDS011;13829;48.990;8.346;2024-02-21T01:57:13;5.77;;;3.77;;
5054;SDS011;13829;48.990;8.346;2024-02-21T01:59:40;8.20;;;4.60;;
5054;SDS011;13829;48.990;8.346;2024-02-21T02:02:09;9.23;;;4.43;;
5054;SDS011;13829;48.990;8.346;2024-02-21T02:04:37;9.70;;;4.90;;
5054;SDS011;13829;48.990;8.346;2024-02-21T02:07:05;9.30;;;4.17;;
5054;SDS011;13829;48.990;8.346;2024-02-21T02:09:33;6.23;;;3.73;;
5054;SDS011;13829;48.990;8.346;2024-02-21T02:12:01;7.77;;;3.93;;
5054;SDS011;13829;48.990;8.346;2024-02-21T02:14:31;6.83;;;3.83;;
5054;SDS011;13829;48.990;8.346;2024-02-21T02:16:58;8.73;;;4.30;;
5054;SDS011;13829;48.990;8.346;2024-02-21T02:19:26;9.07;;;3.83;;
5054;SDS011;13829;48.990;8.346;2024-02-21T02:21:54;6.47;;;3.87;;
5054;SDS011;13829;48.990;8.346;2024-02-21T02:24:32;6.83;;;3.90;;
5054;SDS011;13829;48.990;8.346;2024-02-21T02:26:59;10.50;;;4.57;;
5054;SDS011;13829;48.990;8.346;2024-02-21T02:29:26;9.27;;;4.53;;
5054;SDS011;13829;48.990;8.346;2024-02-21T02:31:53;8.97;;;4.87;;
5054;SDS011;13829;48.990;8.346;2024-02-21T02:34:20;6.87;;;4.10;;
5054;SDS011;13829;48.990;8.346;2024-02-21T02:36:47;6.17;;;4.10;;
5054;SDS011;13829;48.990;8.346;2024-02-21T02:39:14;10.30;;;4.13;;
5054;SDS011;13829;48.990;8.346;2024-02-21T02:41:42;10.37;;;4.10;;
5054;SDS011;13829;48.990;8.346;2024-02-21T02:44:09;9.97;;;4.37;;
5054;SDS011;13829;48.990;8.346;2024-02-21T02:46:36;7.63;;;3.90;;
5054;SDS011;13829;48.990;8.346;2024-02-21T02:49:06;10.50;;;4.60;;
5054;SDS011;13829;48.990;8.346;2024-02-21T02:51:33;10.00;;;4.07;;
5054;SDS011;13829;48.990;8.346;2024-02-21T02:54:00;10.30;;;3.90;;
5054;SDS011;13829;48.990;8.346;2024-02-21T02:56:28;5.93;;;3.90;;
5054;SDS011;13829;48.990;8.346;2024-02-21T02:58:56;11.53;;;3.97;;
5054;SDS011;13829;48.990;8.346;2024-02-21T03:01:23;6.93;;;4.33;;
5054;SDS011;13829;48.990;8.346;2024-02-21T03:03:50;8.53;;;3.80;;
5054;SDS011;13829;48.990;8.346;2024-02-21T03:06:17;7.13;;;3.80;;
5054;SDS011;13829;48.990;8.346;2024-02-21T03:08:44;8.07;;;4.30;;
5054;SDS011;13829;48.990;8.346;2024-02-21T03:11:11;9.33;;;4.47;;
5054;SDS011;13829;48.990;8.346;2024-02-21T03:13:38;6.77;;;3.77;;
5054;SDS011;13829;48.990;8.346;2024-02-21T03:16:06;7.37;;;4.23;;
5054;SDS011;13829;48.990;8.346;2024-02-21T03:18:33;4.70;;;3.40;;
5054;SDS011;13829;48.990;8.346;2024-02-21T03:21:00;7.07;;;3.90;;
5054;SDS011;13829;48.990;8.346;2024-02-21T03:23:27;8.23;;;3.93;;
5054;SDS011;13829;48.990;8.346;2024-02-21T03:25:54;6.10;;;4.33;;
5054;SDS011;13829;48.990;8.346;2024-02-21T03:28:21;6.13;;;3.73;;
5054;SDS011;13829;48.990;8.346;2024-02-21T03:30:48;6.47;;;3.60;;
5054;SDS011;13829;48.990;8.346;2024-02-21T03:33:16;7.50;;;4.23;;
5054;SDS011;13829;48.990;8.346;2024-02-21T03:35:45;6.37;;;3.43;;
5054;SDS011;13829;48.990;8.346;2024-02-21T03:38:12;7.63;;;3.97;;
5054;SDS011;13829;48.990;8.346;2024-02-21T03:40:38;7.60;;;4.17;;
5054;SDS011;13829;48.990;8.346;2024-02-21T03:43:05;6.80;;;3.90;;
5054;SDS011;13829;48.990;8.346;2024-02-21T03:45:32;8.13;;;4.17;;
5054;SDS011;13829;48.990;8.346;2024-02-21T03:47:59;6.07;;;3.63;;
5054;SDS011;13829;48.990;8.346;2024-02-21T03:50:28;7.67;;;4.00;;
5054;SDS011;13829;48.990;8.346;2024-02-21T03:52:55;6.93;;;4.30;;
5054;SDS011;13829;48.990;8.346;2024-02-21T03:55:22;9.93;;;4.03;;
5054;SDS011;13829;48.990;8.346;2024-02-21T03:57:49;6.17;;;3.80;;
5054;SDS011;13829;48.990;8.346;2024-02-21T04:00:16;7.40;;;3.47;;
5054;SDS011;13829;48.990;8.346;2024-02-21T04:02:44;9.17;;;4.57;;
5054;SDS011;13829;48.990;8.346;2024-02-21T04:05:11;7.00;;;3.87;;
5054;SDS011;13829;48.990;8.346;2024-02-21T04:07:43;9.23;;;4.30;;
5054;SDS011;13829;48.990;8.346;2024-02-21T04:10:10;10.00;;;4.17;;
5054;SDS011;13829;48.990;8.346;2024-02-21T04:12:40;7.60;;;4.10;;
5054;SDS011;13829;48.990;8.346;2024-02-21T04:15:07;6.87;;;3.57;;
5054;SDS011;13829;48.990;8.346;2024-02-21T04:17:35;8.30;;;4.10;;
5054;SDS011;13829;48.990;8.346;2024-02-21T04:20:03;7.43;;;4.60;;
5054;SDS011;13829;48.990;8.346;2024-02-21T04:22:32;8.97;;;4.53;;
5054;SDS011;13829;48.990;8.346;2024-02-21T04:25:01;9.43;;;4.60;;
5054;SDS011;13829;48.990;8.346;2024-02-21T04:27:27;9.83;;;4.70;;
5054;SDS011;13829;48.990;8.346;2024-02-21T04:29:54;9.40;;;4.50;;
5054;SDS011;13829;48.990;8.346;2024-02-21T04:32:21;7.20;;;4.73;;
5054;SDS011;13829;48.990;8.346;2024-02-21T04:34:48;12.63;;;4.53;;
5054;SDS011;13829;48.990;8.346;2024-02-21T04:37:15;8.37;;;3.90;;
5054;SDS011;13829;48.990;8.346;2024-02-21T04:39:42;8.80;;;4.00;;
5054;SDS011;13829;48.990;8.346;2024-02-21T04:42:10;9.90;;;4.50;;
5054;SDS011;13829;48.990;8.346;2024-02-21T04:44:37;6.83;;;3.87;;
5054;SDS011;13829;48.990;8.346;2024-02-21T04:47:04;5.87;;;3.93;;
5054;SDS011;13829;48.990;8.346;2024-02-21T04:49:32;7.40;;;4.07;;
5054;SDS011;13829;48.990;8.346;2024-02-21T04:51:59;7.10;;;3.97;;
5054;SDS011;13829;48.990;8.346;2024-02-21T04:54:27;8.00;;;3.93;;
5054;SDS011;13829;48.990;8.346;2024-02-21T04:56:53;9.30;;;4.23;;
5054;SDS011;13829;48.990;8.346;2024-02-21T04:59:22;6.33;;;3.83;;
5054;SDS011;13829;48.990;8.346;2024-02-21T05:01:49;8.23;;;4.33;;
5054;SDS011;13829;48.990;8.346;2024-02-21T05:04:16;8.40;;;4.47;;
5054;SDS011;13829;48.990;8.346;2024-02-21T05:06:43;8.03;;;4.17;;
5054;SDS011;13829;48.990;8.346;2024-02-21T05:09:10;6.63;;;3.90;;
5054;SDS011;13829;48.990;8.346;2024-02-21T05:11:37;10.63;;;4.17;;
5054;SDS011;13829;48.990;8.346;2024-02-21T05:14:04;9.47;;;4.17;;
5054;SDS011;13829;48.990;8.346;2024-02-21T05:16:33;8.33;;;4.47;;
5054;SDS011;13829;48.990;8.346;2024-02-21T05:19:00;8.10;;;4.33;;
5054;SDS011;13829;48.990;8.346;2024-02-21T05:21:28;7.80;;;4.03;;
5054;SDS011;13829;48.990;8.346;2024-02-21T05:23:54;8.50;;;4.40;;
5054;SDS011;13829;48.990;8.346;2024-02-21T05:26:21;7.63;;;4.13;;
5054;SDS011;13829;48.990;8.346;2024-02-21T05:28:49;11.87;;;5.50;;
5054;SDS011;13829;48.990;8.346;2024-02-21T05:31:16;10.23;;;4.63;;
5054;SDS011;13829;48.990;8.346;2024-02-21T05:33:45;9.43;;;4.30;;
5054;SDS011;13829;48.990;8.346;2024-02-21T05:36:13;9.63;;;4.73;;
5054;SDS011;13829;48.990;8.346;2024-02-21T05:38:40;8.30;;;4.27;;
5054;SDS011;13829;48.990;8.346;2024-02-21T05:41:07;8.47;;;4.33;;
5054;SDS011;13829;48.990;8.346;2024-02-21T05:43:34;8.23;;;4.43;;
5054;SDS011;13829;48.990;8.346;2024-02-21T05:46:01;9.27;;;4.10;;
5054;SDS011;13829;48.990;8.346;2024-02-21T05:48:27;9.47;;;4.60;;
5054;SDS011;13829;48.990;8.346;2024-02-21T05:50:56;12.10;;;4.60;;
5054;SDS011;13829;48.990;8.346;2024-02-21T05:53:23;7.37;;;4.03;;
5054;SDS011;13829;48.990;8.346;2024-02-21T05:55:50;9.33;;;5.07;;
5054;SDS011;13829;48.990;8.346;2024-02-21T05:58:17;8.80;;;4.60;;
5054;SDS011;13829;48.990;8.346;2024-02-21T06:00:44;11.93;;;4.97;;
5054;SDS011;13829;48.990;8.346;2024-02-21T06:03:12;8.63;;;4.90;;
5054;SDS011;13829;48.990;8.346;2024-02-21T06:05:39;8.97;;;4.60;;
5054;SDS011;13829;48.990;8.346;2024-02-21T06:08:07;8.27;;;4.40;;
5054;SDS011;13829;48.990;8.346;2024-02-21T06:10:34;6.47;;;4.20;;
5054;SDS011;13829;48.990;8.346;2024-02-21T06:13:01;9.33;;;5.27;;
5054;SDS011;13829;48.990;8.346;2024-02-21T06:15:28;7.17;;;4.70;;
5054;SDS011;13829;48.990;8.346;2024-02-21T06:17:55;9.50;;;4.80;;
5054;SDS011;13829;48.990;8.346;2024-02-21T06:20:22;8.67;;;4.33;;
5054;SDS011;13829;48.990;8.346;2024-02-21T06:22:49;11.53;;;4.47;;
5054;SDS011;13829;48.990;8.346;2024-02-21T06:25:17;8.73;;;4.70;;
5054;SDS011;13829;48.990;8.346;2024-02-21T06:27:44;9.37;;;4.70;;
5054;SDS011;13829;48.990;8.346;2024-02-21T06:30:11;9.40;;;4.47;;
5054;SDS011;13829;48.990;8.346;2024-02-21T06:32:39;10.00;;;4.37;;
5054;SDS011;13829;48.990;8.346;2024-02-21T06:35:06;10.37;;;4.13;;
5054;SDS011;13829;48.990;8.346;2024-02-21T06:37:33;9.33;;;4.33;;
5054;SDS011;13829;48.990;8.346;2024-02-21T06:40:00;9.50;;;3.97;;
5054;SDS011;13829;48.990;8.346;2024-02-21T06:42:30;8.73;;;4.67;;
5054;SDS011;13829;48.990;8.346;2024-02-21T06:44:57;7.73;;;4.27;;
5054;SDS011;13829;48.990;8.346;2024-02-21T06:47:24;10.20;;;4.10;;
5054;SDS011;13829;48.990;8.346;2024-02-21T06:49:51;6.93;;;4.70;;
5054;SDS011;13829;48.990;8.346;2024-02-21T06:52:18;9.20;;;4.80;;
5054;SDS011;13829;48.990;8.346;2024-02-21T06:54:46;7.90;;;4.90;;
5054;SDS011;13829;48.990;8.346;2024-02-21T06:57:13;8.80;;;4.30;;
5054;SDS011;13829;48.990;8.346;2024-02-21T06:59:42;8.87;;;4.47;;
5054;SDS011;13829;48.990;8.346;2024-02-21T07:02:09;9.90;;;5.03;;
5054;SDS011;13829;48.990;8.346;2024-02-21T07:04:36;8.37;;;3.97;;
5054;SDS011;13829;48.990;8.346;2024-02-21T07:07:03;7.90;;;4.33;;
5054;SDS011;13829;48.990;8.346;2024-02-21T07:09:30;6.37;;;4.03;;
5054;SDS011;13829;48.990;8.346;2024-02-21T07:11:57;8.17;;;3.87;;
5054;SDS011;13829;48.990;8.346;2024-02-21T07:14:25;10.73;;;4.23;;
5054;SDS011;13829;48.990;8.346;2024-02-21T07:16:53;6.23;;;3.90;;
5054;SDS011;13829;48.990;8.346;2024-02-21T07:19:22;10.57;;;4.43;;
5054;SDS011;13829;48.990;8.346;2024-02-21T07:21:49;9.30;;;4.67;;
5054;SDS011;13829;48.990;8.346;2024-02-21T07:24:16;6.93;;;4.70;;
5054;SDS011;13829;48.990;8.346;2024-02-21T07:26:43;7.90;;;4.17;;
5054;SDS011;13829;48.990;8.346;2024-02-21T07:29:10;7.97;;;3.97;;
5054;SDS011;13829;48.990;8.346;2024-02-21T07:31:40;9.30;;;3.97;;
5054;SDS011;13829;48.990;8.346;2024-02-21T07:34:09;6.33;;;4.53;;
5054;SDS011;13829;48.990;8.346;2024-02-21T07:36:36;7.43;;;4.30;;
5054;SDS011;13829;48.990;8.346;2024-02-21T07:39:03;7.27;;;3.87;;
5054;SDS011;13829;48.990;8.346;2024-02-21T07:41:31;8.00;;;4.40;;
5054;SDS011;13829;48.990;8.346;2024-02-21T07:43:59;9.13;;;4.30;;
5054;SDS011;13829;48.990;8.346;2024-02-21T07:46:26;12.00;;;4.53;;
5054;SDS011;13829;48.990;8.346;2024-02-21T07:48:53;11.37;;;4.13;;
5054;SDS011;13829;48.990;8.346;2024-02-21T07:51:22;8.70;;;4.23;;
5054;SDS011;13829;48.990;8.346;2024-02-21T07:53:49;7.70;;;3.83;;
5054;SDS011;13829;48.990;8.346;2024-02-21T07:56:15;10.03;;;4.10;;
5054;SDS011;13829;48.990;8.346;2024-02-21T07:58:42;9.43;;;4.20;;
5054;SDS011;13829;48.990;8.346;2024-02-21T08:01:10;7.90;;;3.93;;
5054;SDS011;13829;48.990;8.346;2024-02-21T08:03:37;7.20;;;3.70;;
5054;SDS011;13829;48.990;8.346;2024-02-21T08:06:04;9.47;;;4.57;;
5054;SDS011;13829;48.990;8.346;2024-02-21T08:08:32;11.13;;;4.57;;
5054;SDS011;13829;48.990;8.346;2024-02-21T08:10:59;9.90;;;3.90;;
5054;SDS011;13829;48.990;8.346;2024-02-21T08:13:26;7.23;;;3.70;;
5054;SDS011;13829;48.990;8.346;2024-02-21T08:15:53;7.50;;;4.37;;
5054;SDS011;13829;48.990;8.346;2024-02-21T08:18:20;7.53;;;4.03;;
5054;SDS011;13829;48.990;8.346;2024-02-21T08:20:47;6.47;;;3.70;;
5054;SDS011;13829;48.990;8.346;2024-02-21T08:23:15;6.70;;;3.90;;
5054;SDS011;13829;48.990;8.346;2024-02-21T08:25:44;7.27;;;4.30;;
5054;SDS011;13829;48.990;8.346;2024-02-21T08:28:11;8.83;;;4.47;;
5054;SDS011;13829;48.990;8.346;2024-02-21T08:30:40;8.07;;;4.20;;
5054;SDS011;13829;48.990;8.346;2024-02-21T08:33:09;11.00;;;4.03;;
5054;SDS011;13829;48.990;8.346;2024-02-21T08:35:36;5.63;;;3.77;;
5054;SDS011;13829;48.990;8.346;2024-02-21T08:38:03;8.47;;;3.80;;
5054;SDS011;13829;48.990;8.346;2024-02-21T08:40:30;8.40;;;4.20;;
5054;SDS011;13829;48.990;8.346;2024-02-21T08:43:01;9.73;;;4.67;;
5054;SDS011;13829;48.990;8.346;2024-02-21T08:45:28;8.57;;;4.33;;
5054;SDS011;13829;48.990;8.346;2024-02-21T08:47:55;8.90;;;4.30;;
5054;SDS011;13829;48.990;8.346;2024-02-21T08:50:22;12.93;;;5.13;;
5054;SDS011;13829;48.990;8.346;2024-02-21T08:52:49;7.67;;;4.00;;
5054;SDS011;13829;48.990;8.346;2024-02-21T08:55:16;8.77;;;4.50;;
5054;SDS011;13829;48.990;8.346;2024-02-21T08:57:43;9.27;;;4.57;;
5054;SDS011;13829;48.990;8.346;2024-02-21T09:00:12;8.27;;;4.40;;
5054;SDS011;13829;48.990;8.346;2024-02-21T09:02:41;8.93;;;3.80;;
5054;SDS011;13829;48.990;8.346;2024-02-21T09:05:08;12.83;;;4.77;;
5054;SDS011;13829;48.990;8.346;2024-02-21T09:07:35;8.57;;;4.20;;
5054;SDS011;13829;48.990;8.346;2024-02-21T09:10:02;10.13;;;3.73;;
5054;SDS011;13829;48.990;8.346;2024-02-21T09:12:30;6.47;;;3.83;;
5054;SDS011;13829;48.990;8.346;2024-02-21T09:14:57;7.13;;;3.57;;
5054;SDS011;13829;48.990;8.346;2024-02-21T09:17:25;9.07;;;3.80;;
5054;SDS011;13829;48.990;8.346;2024-02-21T09:19:54;6.97;;;3.40;;
5054;SDS011;13829;48.990;8.346;2024-02-21T09:22:24;7.90;;;3.40;;
5054;SDS011;13829;48.990;8.346;2024-02-21T09:24:51;8.07;;;3.90;;
5054;SDS011;13829;48.990;8.346;2024-02-21T09:27:18;9.63;;;3.97;;
5054;SDS011;13829;48.990;8.346;2024-02-21T09:29:44;11.90;;;4.00;;
5054;SDS011;13829;48.990;8.346;2024-02-21T09:32:11;18.07;;;4.20;;
5054;SDS011;13829;48.990;8.346;2024-02-21T09:34:40;6.93;;;3.80;;
5054;SDS011;13829;48.990;8.346;2024-02-21T09:37:07;5.20;;;3.73;;
5054;SDS011;13829;48.990;8.346;2024-02-21T09:39:34;6.60;;;3.87;;
5054;SDS011;13829;48.990;8.346;2024-02-21T09:42:03;11.00;;;3.90;;
5054;SDS011;13829;48.990;8.346;2024-02-21T09:44:33;11.13;;;3.63;;
5054;SDS011;13829;48.990;8.346;2024-02-21T09:47:04;11.07;;;3.87;;
5054;SDS011;13829;48.990;8.346;2024-02-21T09:49:36;9.67;;;3.70;;
5054;SDS011;13829;48.990;8.346;2024-02-21T09:52:07;6.87;;;3.13;;
5054;SDS011;13829;48.990;8.346;2024-02-21T09:54:38;9.17;;;4.17;;
5054;SDS011;13829;48.990;8.346;2024-02-21T09:57:09;5.93;;;3.33;;
5054;SDS011;13829;48.990;8.346;2024-02-21T09:59:37;9.67;;;3.33;;
5054;SDS011;13829;48.990;8.346;2024-02-21T10:02:04;8.00;;;3.80;;
5054;SDS011;13829;48.990;8.346;2024-02-21T10:04:31;9.33;;;3.70;;
5054;SDS011;13829;48.990;8.346;2024-02-21T10:06:58;6.50;;;3.37;;
5054;SDS011;13829;48.990;8.346;2024-02-21T10:09:27;5.67;;;3.03;;
5054;SDS011;13829;48.990;8.346;2024-02-21T10:11:54;7.37;;;4.00;;
5054;SDS011;13829;48.990;8.346;2024-02-21T10:14:33;7.23;;;3.50;;
5054;SDS011;13829;48.990;8.346;2024-02-21T10:17:00;7.37;;;3.80;;
5054;SDS011;13829;48.990;8.346;2024-02-21T10:19:28;7.93;;;3.90;;
5054;SDS011;13829;48.990;8.346;2024-02-21T10:22:01;8.87;;;4.13;;
5054;SDS011;13829;48.990;8.346;2024-02-21T10:24:31;7.20;;;3.53;;
5054;SDS011;13829;48.990;8.346;2024-02-21T10:26:59;9.43;;;3.87;;
5054;SDS011;13829;48.990;8.346;2024-02-21T10:29:28;6.03;;;3.27;;
5054;SDS011;13829;48.990;8.346;2024-02-21T10:32:03;9.60;;;3.33;;
5054;SDS011;13829;48.990;8.346;2024-02-21T10:34:32;10.77;;;3.87;;
5054;SDS011;13829;48.990;8.346;2024-02-21T10:37:00;9.33;;;3.50;;
5054;SDS011;13829;48.990;8.346;2024-02-21T10:39:28;7.40;;;3.00;;
5054;SDS011;13829;48.990;8.346;2024-02-21T10:41:58;7.53;;;2.80;;
5054;SDS011;13829;48.990;8.346;2024-02-21T10:44:29;6.60;;;2.70;;
5054;SDS011;13829;48.990;8.346;2024-02-21T10:46:57;8.93;;;3.07;;
5054;SDS011;13829;48.990;8.346;2024-02-21T10:49:25;5.40;;;2.77;;
5054;SDS011;13829;48.990;8.346;2024-02-21T10:51:54;8.03;;;3.13;;
5054;SDS011;13829;48.990;8.346;2024-02-21T10:54:36;7.47;;;2.83;;
5054;SDS011;13829;48.990;8.346;2024-02-21T10:57:13;9.80;;;3.20;;
5054;SDS011;13829;48.990;8.346;2024-02-21T10:59:40;7.37;;;3.10;;
5054;SDS011;13829;48.990;8.346;2024-02-21T11:02:09;5.43;;;2.63;;
5054;SDS011;13829;48.990;8.346;2024-02-21T11:04:36;6.57;;;2.67;;
5054;SDS011;13829;48.990;8.346;2024-02-21T11:07:05;8.20;;;2.87;;
5054;SDS011;13829;48.990;8.346;2024-02-21T11:09:33;7.73;;;2.90;;
5054;SDS011;13829;48.990;8.346;2024-02-21T11:12:02;5.47;;;2.10;;
5054;SDS011;13829;48.990;8.346;2024-02-21T11:14:31;6.20;;;2.60;;
5054;SDS011;13829;48.990;8.346;2024-02-21T11:17:01;6.80;;;2.43;;
5054;SDS011;13829;48.990;8.346;2024-02-21T11:19:29;9.20;;;3.23;;
5054;SDS011;13829;48.990;8.346;2024-02-21T11:21:57;7.10;;;2.53;;
5054;SDS011;13829;48.990;8.346;2024-02-21T11:24:26;7.77;;;2.90;;
5054;SDS011;13829;48.990;8.346;2024-02-21T11:26:55;6.17;;;2.47;;
5054;SDS011;13829;48.990;8.346;2024-02-21T11:29:23;5.50;;;2.30;;
5054;SDS011;13829;48.990;8.346;2024-02-21T11:31:52;6.33;;;2.30;;
5054;SDS011;13829;48.990;8.346;2024-02-21T11:34:19;5.13;;;2.67;;
5054;SDS011;13829;48.990;8.346;2024-02-21T11:36:46;7.43;;;2.53;;
5054;SDS011;13829;48.990;8.346;2024-02-21T11:39:18;6.03;;;2.47;;
5054;SDS011;13829;48.990;8.346;2024-02-21T11:41:48;7.43;;;2.60;;
5054;SDS011;13829;48.990;8.346;2024-02-21T11:44:29;8.20;;;2.73;;
5054;SDS011;13829;48.990;8.346;2024-02-21T11:46:57;7.90;;;3.10;;
5054;SDS011;13829;48.990;8.346;2024-02-21T11:49:24;5.27;;;2.37;;
5054;SDS011;13829;48.990;8.346;2024-02-21T11:51:57;6.20;;;2.30;;
5054;SDS011;13829;48.990;8.346;2024-02-21T11:54:25;5.20;;;2.47;;
5054;SDS011;13829;48.990;8.346;2024-02-21T11:56:52;7.73;;;2.60;;
5054;SDS011;13829;48.990;8.346;2024-02-21T11:59:19;8.40;;;2.57;;
5054;SDS011;13829;48.990;8.346;2024-02-21T12:01:46;10.03;;;2.93;;
5054;SDS011;13829;48.990;8.346;2024-02-21T12:04:18;4.00;;;2.40;;
5054;SDS011;13829;48.990;8.346;2024-02-21T12:06:47;5.53;;;2.57;;
5054;SDS011;13829;48.990;8.346;2024-02-21T12:09:14;7.47;;;2.93;;
5054;SDS011;13829;48.990;8.346;2024-02-21T12:11:41;5.70;;;2.63;;
5054;SDS011;13829;48.990;8.346;2024-02-21T12:14:09;6.07;;;2.60;;
5054;SDS011;13829;48.990;8.346;2024-02-21T12:16:36;4.97;;;2.43;;
5054;SDS011;13829;48.990;8.346;2024-02-21T12:19:03;5.40;;;2.63;;
5054;SDS011;13829;48.990;8.346;2024-02-21T12:21:32;5.97;;;2.60;;
5054;SDS011;13829;48.990;8.346;2024-02-21T12:24:10;5.40;;;2.63;;
5054;SDS011;13829;48.990;8.346;2024-02-21T12:26:39;6.43;;;2.33;;
5054;SDS011;13829;48.990;8.346;2024-02-21T12:29:06;4.67;;;2.57;;
5054;SDS011;13829;48.990;8.346;2024-02-21T12:31:34;6.03;;;2.57;;
5054;SDS011;13829;48.990;8.346;2024-02-21T12:34:01;6.33;;;2.63;;
5054;SDS011;13829;48.990;8.346;2024-02-21T12:36:29;6.70;;;2.67;;
5054;SDS011;13829;48.990;8.346;2024-02-21T12:38:57;9.27;;;2.93;;
5054;SDS011;13829;48.990;8.346;2024-02-21T12:41:25;8.20;;;2.80;;
5054;SDS011;13829;48.990;8.346;2024-02-21T12:43:52;7.93;;;3.10;;
5054;SDS011;13829;48.990;8.346;2024-02-21T12:46:19;9.13;;;2.57;;
5054;SDS011;13829;48.990;8.346;2024-02-21T12:48:46;7.07;;;2.70;;
5054;SDS011;13829;48.990;8.346;2024-02-21T12:51:14;4.80;;;2.83;;
5054;SDS011;13829;48.990;8.346;2024-02-21T12:53:45;8.30;;;2.60;;
5054;SDS011;13829;48.990;8.346;2024-02-21T12:56:16;8.10;;;3.27;;
5054;SDS011;13829;48.990;8.346;2024-02-21T12:58:43;7.10;;;2.50;;
5054;SDS011;13829;48.990;8.346;2024-02-21T13:01:10;4.87;;;2.50;;
5054;SDS011;13829;48.990;8.346;2024-02-21T13:03:37;6.33;;;2.17;;
5054;SDS011;13829;48.990;8.346;2024-02-21T13:06:04;5.77;;;2.40;;
5054;SDS011;13829;48.990;8.346;2024-02-21T13:08:33;7.90;;;2.90;;
5054;SDS011;13829;48.990;8.346;2024-02-21T13:11:00;7.03;;;2.30;;
5054;SDS011;13829;48.990;8.346;2024-02-21T13:13:29;7.93;;;3.00;;
5054;SDS011;13829;48.990;8.346;2024-02-21T13:15:56;4.97;;;2.23;;
5054;SDS011;13829;48.990;8.346;2024-02-21T13:18:24;8.23;;;2.70;;
5054;SDS011;13829;48.990;8.346;2024-02-21T13:20:51;6.10;;;2.20;;
5054;SDS011;13829;48.990;8.346;2024-02-21T13:23:18;6.97;;;2.87;;
5054;SDS011;13829;48.990;8.346;2024-02-21T13:25:46;7.43;;;2.60;;
5054;SDS011;13829;48.990;8.346;2024-02-21T13:28:14;8.80;;;2.63;;
5054;SDS011;13829;48.990;8.346;2024-02-21T13:30:42;5.57;;;2.67;;
5054;SDS011;13829;48.990;8.346;2024-02-21T13:33:10;9.13;;;2.93;;
5054;SDS011;13829;48.990;8.346;2024-02-21T13:35:37;7.10;;;2.70;;
5054;SDS011;13829;48.990;8.346;2024-02-21T13:38:04;10.07;;;3.17;;
5054;SDS011;13829;48.990;8.346;2024-02-21T13:40:31;5.47;;;2.43;;
5054;SDS011;13829;48.990;8.346;2024-02-21T13:42:58;6.43;;;2.50;;
5054;SDS011;13829;48.990;8.346;2024-02-21T13:45:26;7.30;;;2.37;;
5054;SDS011;13829;48.990;8.346;2024-02-21T13:47:54;6.90;;;2.90;;
5054;SDS011;13829;48.990;8.346;2024-02-21T13:50:25;5.13;;;2.47;;
5054;SDS011;13829;48.990;8.346;2024-02-21T13:52:57;5.67;;;2.70;;
5054;SDS011;13829;48.990;8.346;2024-02-21T13:55:24;5.47;;;2.60;;
5054;SDS011;13829;48.990;8.346;2024-02-21T13:57:52;7.73;;;2.57;;
5054;SDS011;13829;48.990;8.346;2024-02-21T14:00:19;5.00;;;3.10;;
5054;SDS011;13829;48.990;8.346;2024-02-21T14:02:46;11.00;;;3.10;;
5054;SDS011;13829;48.990;8.346;2024-02-21T14:05:14;9.17;;;3.03;;
5054;SDS011;13829;48.990;8.346;2024-02-21T14:07:41;7.17;;;2.70;;
5054;SDS011;13829;48.990;8.346;2024-02-21T14:10:08;5.00;;;2.53;;
5054;SDS011;13829;48.990;8.346;2024-02-21T14:12:35;5.97;;;2.70;;
5054;SDS011;13829;48.990;8.346;2024-02-21T14:15:04;5.33;;;2.30;;
5054;SDS011;13829;48.990;8.346;2024-02-21T14:17:32;9.00;;;2.73;;
5054;SDS011;13829;48.990;8.346;2024-02-21T14:19:59;8.13;;;2.73;;
5054;SDS011;13829;48.990;8.346;2024-02-21T14:22:27;5.50;;;2.70;;
5054;SDS011;13829;48.990;8.346;2024-02-21T14:24:54;5.23;;;2.63;;
5054;SDS011;13829;48.990;8.346;2024-02-21T14:27:21;6.23;;;2.30;;
5054;SDS011;13829;48.990;8.346;2024-02-21T14:29:48;4.13;;;2.50;;
5054;SDS011;13829;48.990;8.346;2024-02-21T14:32:15;6.50;;;3.00;;
5054;SDS011;13829;48.990;8.346;2024-02-21T14:34:42;7.83;;;2.50;;
5054;SDS011;13829;48.990;8.346;2024-02-21T14:37:09;6.90;;;3.00;;
5054;SDS011;13829;48.990;8.346;2024-02-21T14:39:37;5.13;;;3.10;;
5054;SDS011;13829;48.990;8.346;2024-02-21T14:42:05;9.83;;;2.80;;
5054;SDS011;13829;48.990;8.346;2024-02-21T14:44:34;7.13;;;2.20;;
5054;SDS011;13829;48.990;8.346;2024-02-21T14:47:02;5.27;;;2.60;;
5054;SDS011;13829;48.990;8.346;2024-02-21T14:49:29;6.13;;;3.20;;
5054;SDS011;13829;48.990;8.346;2024-02-21T14:51:56;7.00;;;2.77;;
5054;SDS011;13829;48.990;8.346;2024-02-21T14:54:23;6.73;;;2.87;;
5054;SDS011;13829;48.990;8.346;2024-02-21T14:56:52;9.33;;;2.90;;
5054;SDS011;13829;48.990;8.346;2024-02-21T14:59:19;7.63;;;2.90;;
5054;SDS011;13829;48.990;8.346;2024-02-21T15:01:46;8.20;;;2.93;;
5054;SDS011;13829;48.990;8.346;2024-02-21T15:04:13;6.57;;;3.10;;